createdAt,value
2023-11-07T00:00:48.248Z,0
2023-11-07T00:01:48.236Z,0
2023-11-07T00:02:48.331Z,0
2023-11-07T00:03:48.299Z,0
2023-11-07T00:04:48.227Z,0
2023-11-07T00:05:48.366Z,0
2023-11-07T00:06:48.248Z,0
2023-11-07T00:07:48.246Z,0
2023-11-07T00:08:48.248Z,0
2023-11-07T00:09:48.236Z,0
2023-11-07T00:10:48.232Z,0
2023-11-07T00:11:48.263Z,0
2023-11-07T00:12:48.233Z,0
2023-11-07T00:13:48.234Z,0
2023-11-07T00:14:48.321Z,0
2023-11-07T00:15:48.269Z,0
2023-11-07T00:16:48.247Z,0
2023-11-07T00:17:48.342Z,0
2023-11-07T00:18:48.593Z,0
2023-11-07T00:19:48.233Z,0
2023-11-07T00:20:48.257Z,0
2023-11-07T00:21:48.245Z,0
2023-11-07T00:22:48.238Z,0
2023-11-07T00:23:48.235Z,0
2023-11-07T00:24:48.355Z,0
2023-11-07T00:25:48.224Z,0
2023-11-07T00:26:48.263Z,0
2023-11-07T00:27:48.237Z,0
2023-11-07T00:28:48.243Z,0
2023-11-07T00:29:48.268Z,0
2023-11-07T00:30:48.236Z,0
2023-11-07T00:31:48.239Z,0
2023-11-07T00:32:48.374Z,0
2023-11-07T00:33:48.339Z,0
2023-11-07T00:34:48.253Z,0
2023-11-07T00:35:48.250Z,0
2023-11-07T00:36:48.248Z,0
2023-11-07T00:37:48.232Z,0
2023-11-07T00:38:48.261Z,0
2023-11-07T00:39:48.235Z,0
2023-11-07T00:40:48.266Z,0
2023-11-07T00:41:48.285Z,0
2023-11-07T00:42:48.235Z,0
2023-11-07T00:43:48.238Z,0
2023-11-07T00:44:48.267Z,0
2023-11-07T00:45:48.254Z,0
2023-11-07T00:46:48.258Z,0
2023-11-07T00:47:48.387Z,0
2023-11-07T00:48:48.333Z,0
2023-11-07T00:49:48.251Z,0
2023-11-07T00:50:48.236Z,0
2023-11-07T00:51:48.256Z,0
2023-11-07T00:52:48.241Z,0
2023-11-07T00:53:48.257Z,0
2023-11-07T00:54:48.235Z,0
2023-11-07T00:55:48.237Z,0
2023-11-07T00:56:48.288Z,0
2023-11-07T00:57:48.238Z,0
2023-11-07T00:58:48.233Z,0
2023-11-07T00:59:48.274Z,0
2023-11-07T01:00:48.250Z,0
2023-11-07T01:01:48.242Z,0
2023-11-07T01:02:48.289Z,0
2023-11-07T01:03:48.390Z,0
2023-11-07T01:04:48.307Z,0
2023-11-07T01:05:48.307Z,0
2023-11-07T01:06:48.342Z,0
2023-11-07T01:07:48.234Z,0
2023-11-07T01:08:48.276Z,0
2023-11-07T01:09:48.241Z,0
2023-11-07T01:10:48.251Z,0
2023-11-07T01:11:48.275Z,0
2023-11-07T01:12:48.228Z,0
2023-11-07T01:13:48.243Z,0
2023-11-07T01:14:48.278Z,0
2023-11-07T01:15:48.264Z,0
2023-11-07T01:16:48.248Z,0
2023-11-07T01:17:48.422Z,0
2023-11-07T01:18:48.352Z,0
2023-11-07T01:19:48.238Z,0
2023-11-07T01:20:48.285Z,0
2023-11-07T01:21:48.251Z,0
2023-11-07T01:22:48.248Z,0
2023-11-07T01:23:48.285Z,0
2023-11-07T01:24:48.298Z,0
2023-11-07T01:25:48.248Z,0
2023-11-07T01:26:48.302Z,0
2023-11-07T01:27:48.235Z,0
2023-11-07T01:28:48.234Z,0
2023-11-07T01:29:48.307Z,0
2023-11-07T01:30:48.237Z,0
2023-11-07T01:31:48.240Z,0
2023-11-07T01:32:48.347Z,0
2023-11-07T01:33:48.368Z,0
2023-11-07T01:34:48.243Z,0
2023-11-07T01:35:48.274Z,0
2023-11-07T01:36:48.277Z,0
2023-11-07T01:37:48.230Z,0
2023-11-07T01:38:48.258Z,0
2023-11-07T01:39:48.241Z,0
2023-11-07T01:40:48.234Z,0
2023-11-07T01:41:48.270Z,0
2023-11-07T01:42:48.239Z,0
2023-11-07T01:43:48.228Z,0
2023-11-07T01:44:48.293Z,0
2023-11-07T01:45:48.260Z,0
2023-11-07T01:46:48.276Z,0
2023-11-07T01:47:48.300Z,0
2023-11-07T01:48:48.447Z,0
2023-11-07T01:49:48.240Z,0
2023-11-07T01:50:48.252Z,0
2023-11-07T01:51:48.246Z,0
2023-11-07T01:52:48.234Z,0
2023-11-07T01:53:48.281Z,0
2023-11-07T01:54:48.246Z,0
2023-11-07T01:55:48.259Z,0
2023-11-07T01:56:48.313Z,0
2023-11-07T01:57:48.286Z,0
2023-11-07T01:58:48.236Z,0
2023-11-07T01:59:48.300Z,0
2023-11-07T02:00:48.244Z,0
2023-11-07T02:01:48.240Z,0
2023-11-07T02:02:48.392Z,0
2023-11-07T02:03:48.348Z,0
2023-11-07T02:04:48.963Z,0
2023-11-07T02:05:48.249Z,0
2023-11-07T02:06:48.255Z,0
2023-11-07T02:07:48.241Z,0
2023-11-07T02:08:48.241Z,0
2023-11-07T02:09:48.241Z,0
2023-11-07T02:10:48.235Z,0
2023-11-07T02:11:48.269Z,0
2023-11-07T02:12:48.237Z,0
2023-11-07T02:13:48.252Z,0
2023-11-07T02:14:48.331Z,0
2023-11-07T02:15:48.254Z,0
2023-11-07T02:16:48.250Z,0
2023-11-07T02:17:48.358Z,0
2023-11-07T02:18:48.308Z,0
2023-11-07T02:19:48.235Z,0
2023-11-07T02:20:48.285Z,0
2023-11-07T02:21:48.251Z,0
2023-11-07T02:22:48.242Z,0
2023-11-07T02:23:48.355Z,0
2023-11-07T02:24:48.270Z,0
2023-11-07T02:25:48.236Z,0
2023-11-07T02:26:48.266Z,0
2023-11-07T02:27:48.282Z,0
2023-11-07T02:28:48.253Z,0
2023-11-07T02:29:48.286Z,0
2023-11-07T02:30:48.262Z,0
2023-11-07T02:31:48.264Z,0
2023-11-07T02:32:48.340Z,0
2023-11-07T02:33:48.344Z,0
2023-11-07T02:34:48.242Z,0
2023-11-07T02:35:48.251Z,0
2023-11-07T02:36:48.252Z,0
2023-11-07T02:37:48.235Z,0
2023-11-07T02:38:48.255Z,0
2023-11-07T02:39:48.227Z,0
2023-11-07T02:40:48.245Z,0
2023-11-07T02:41:48.312Z,0
2023-11-07T02:42:48.242Z,0
2023-11-07T02:43:48.241Z,0
2023-11-07T02:44:48.301Z,0
2023-11-07T02:45:48.248Z,0
2023-11-07T02:46:48.251Z,0
2023-11-07T02:47:48.391Z,0
2023-11-07T02:48:48.311Z,0
2023-11-07T02:49:48.266Z,0
2023-11-07T02:50:48.261Z,0
2023-11-07T02:51:48.243Z,0
2023-11-07T02:52:48.232Z,0
2023-11-07T02:53:48.332Z,0
2023-11-07T02:54:48.250Z,0
2023-11-07T02:55:48.225Z,0
2023-11-07T02:56:48.296Z,0
2023-11-07T02:57:48.235Z,0
2023-11-07T02:58:48.233Z,0
2023-11-07T02:59:48.260Z,0
2023-11-07T03:00:48.236Z,0
2023-11-07T03:01:48.247Z,0
2023-11-07T03:02:48.326Z,0
2023-11-07T03:03:48.336Z,0
2023-11-07T03:04:48.242Z,0
2023-11-07T03:05:48.289Z,0
2023-11-07T03:06:48.341Z,0
2023-11-07T03:07:48.225Z,0
2023-11-07T03:08:48.258Z,0
2023-11-07T03:09:48.238Z,0
2023-11-07T03:10:48.258Z,0
2023-11-07T03:11:48.256Z,0
2023-11-07T03:12:48.291Z,0
2023-11-07T03:13:48.255Z,0
2023-11-07T03:14:48.250Z,0
2023-11-07T03:15:48.259Z,0
2023-11-07T03:16:48.275Z,0
2023-11-07T03:17:48.515Z,0
2023-11-07T03:18:48.317Z,0
2023-11-07T03:19:48.231Z,0
2023-11-07T03:20:48.246Z,0
2023-11-07T03:21:48.235Z,0
2023-11-07T03:22:48.229Z,0
2023-11-07T03:23:48.276Z,0
2023-11-07T03:24:48.224Z,0
2023-11-07T03:25:48.234Z,0
2023-11-07T03:26:48.263Z,0
2023-11-07T03:27:48.248Z,0
2023-11-07T03:28:48.228Z,0
2023-11-07T03:29:48.262Z,0
2023-11-07T03:30:48.246Z,0
2023-11-07T03:31:48.239Z,0
2023-11-07T03:32:48.328Z,0
2023-11-07T03:33:48.476Z,0
2023-11-07T03:34:48.239Z,0
2023-11-07T03:35:48.358Z,0
2023-11-07T03:36:48.241Z,0
2023-11-07T03:37:48.230Z,0
2023-11-07T03:38:48.261Z,0
2023-11-07T03:39:48.224Z,0
2023-11-07T03:40:48.264Z,0
2023-11-07T03:41:48.249Z,0
2023-11-07T03:42:48.238Z,0
2023-11-07T03:43:48.226Z,0
2023-11-07T03:44:48.275Z,0
2023-11-07T03:45:48.244Z,0
2023-11-07T03:46:48.266Z,0
2023-11-07T03:47:48.300Z,0
2023-11-07T03:48:48.352Z,0
2023-11-07T03:49:48.239Z,0
2023-11-07T03:50:48.267Z,0
2023-11-07T03:51:48.254Z,0
2023-11-07T03:52:48.266Z,0
2023-11-07T03:53:48.272Z,0
2023-11-07T03:54:48.241Z,0
2023-11-07T03:55:48.236Z,0
2023-11-07T03:56:48.316Z,0
2023-11-07T03:57:48.239Z,0
2023-11-07T03:58:48.245Z,0
2023-11-07T03:59:48.250Z,0
2023-11-07T04:00:48.249Z,0
2023-11-07T04:01:48.242Z,0
2023-11-07T04:02:48.483Z,0
2023-11-07T04:03:48.299Z,0
2023-11-07T04:04:48.240Z,0
2023-11-07T04:05:48.414Z,0
2023-11-07T04:06:48.397Z,0
2023-11-07T04:07:48.233Z,0
2023-11-07T04:08:48.300Z,0
2023-11-07T04:09:48.248Z,0
2023-11-07T04:10:48.239Z,0
2023-11-07T04:11:48.261Z,0
2023-11-07T04:12:48.246Z,0
2023-11-07T04:13:48.242Z,0
2023-11-07T04:14:48.321Z,0
2023-11-07T04:15:48.248Z,0
2023-11-07T04:16:48.266Z,0
2023-11-07T04:17:48.490Z,0
2023-11-07T04:18:48.303Z,0
2023-11-07T04:19:48.240Z,0
2023-11-07T04:20:48.248Z,0
2023-11-07T04:21:48.244Z,0
2023-11-07T04:22:48.266Z,0
2023-11-07T04:23:48.314Z,0
2023-11-07T04:24:48.236Z,0
2023-11-07T04:25:48.238Z,0
2023-11-07T04:26:48.249Z,0
2023-11-07T04:27:48.241Z,0
2023-11-07T04:28:48.231Z,0
2023-11-07T04:29:48.426Z,0
2023-11-07T04:30:48.415Z,0
2023-11-07T04:31:48.245Z,0
2023-11-07T04:32:48.335Z,0
2023-11-07T04:33:48.296Z,0
2023-11-07T04:34:48.229Z,0
2023-11-07T04:35:48.261Z,0
2023-11-07T04:36:48.239Z,0
2023-11-07T04:37:48.233Z,0
2023-11-07T04:38:48.262Z,0
2023-11-07T04:39:48.243Z,0
2023-11-07T04:40:48.233Z,0
2023-11-07T04:41:48.319Z,0
2023-11-07T04:42:48.233Z,0
2023-11-07T04:43:48.249Z,0
2023-11-07T04:44:48.281Z,0
2023-11-07T04:45:48.256Z,0
2023-11-07T04:46:48.269Z,0
2023-11-07T04:47:48.380Z,0
2023-11-07T04:48:48.401Z,0
2023-11-07T04:49:48.290Z,0
2023-11-07T04:50:48.284Z,0
2023-11-07T04:51:48.232Z,0
2023-11-07T04:52:48.232Z,0
2023-11-07T04:53:48.263Z,0
2023-11-07T04:54:48.262Z,0
2023-11-07T04:55:48.241Z,0
2023-11-07T04:56:48.271Z,0
2023-11-07T04:57:48.225Z,0
2023-11-07T04:58:57.132Z,0
2023-11-07T04:59:48.279Z,0
2023-11-07T05:00:48.249Z,0
2023-11-07T05:01:48.242Z,0
2023-11-07T05:02:48.357Z,0
2023-11-07T05:03:48.309Z,0
2023-11-07T05:04:48.331Z,0
2023-11-07T05:05:48.302Z,0
2023-11-07T05:06:48.434Z,0
2023-11-07T05:07:48.247Z,0
2023-11-07T05:08:48.282Z,0
2023-11-07T05:09:48.244Z,0
2023-11-07T05:10:48.228Z,0
2023-11-07T05:11:48.292Z,0
2023-11-07T05:12:48.237Z,0
2023-11-07T05:13:48.257Z,0
2023-11-07T05:14:48.267Z,0
2023-11-07T05:15:48.259Z,0
2023-11-07T05:16:48.269Z,0
2023-11-07T05:17:48.369Z,0
2023-11-07T05:18:48.329Z,0
2023-11-07T05:19:48.257Z,0
2023-11-07T05:20:48.244Z,0
2023-11-07T05:21:48.258Z,0
2023-11-07T05:22:48.252Z,0
2023-11-07T05:23:48.273Z,0
2023-11-07T05:24:48.252Z,0
2023-11-07T05:25:48.236Z,0
2023-11-07T05:26:48.276Z,0
2023-11-07T05:27:48.242Z,0
2023-11-07T05:28:48.250Z,0
2023-11-07T05:29:48.298Z,0
2023-11-07T05:30:48.264Z,0
2023-11-07T05:31:48.254Z,0
2023-11-07T05:32:48.338Z,0
2023-11-07T05:33:48.364Z,0
2023-11-07T05:34:48.252Z,0
2023-11-07T05:35:48.269Z,0
2023-11-07T05:36:48.256Z,1
2023-11-07T05:37:48.246Z,1
2023-11-07T05:38:48.301Z,1
2023-11-07T05:39:48.238Z,3
2023-11-07T05:40:48.251Z,3
2023-11-07T05:41:48.295Z,5
2023-11-07T05:42:48.248Z,7
2023-11-07T05:43:48.264Z,9
2023-11-07T05:44:48.282Z,11
2023-11-07T05:45:48.263Z,12
2023-11-07T05:46:48.274Z,14
2023-11-07T05:47:48.422Z,16
2023-11-07T05:48:48.384Z,20
2023-11-07T05:49:48.249Z,23
2023-11-07T05:50:48.262Z,29
2023-11-07T05:51:48.261Z,35
2023-11-07T05:52:48.255Z,40
2023-11-07T05:53:48.255Z,46
2023-11-07T05:54:48.263Z,53
2023-11-07T05:55:48.238Z,60
2023-11-07T05:56:48.276Z,68
2023-11-07T05:57:48.241Z,77
2023-11-07T05:58:49.716Z,82
2023-11-07T05:59:48.278Z,94
2023-11-07T06:00:48.254Z,103
2023-11-07T06:01:48.256Z,103
2023-11-07T06:02:48.320Z,117
2023-11-07T06:03:48.381Z,130
2023-11-07T06:04:48.231Z,141
2023-11-07T06:05:48.298Z,152
2023-11-07T06:06:48.290Z,169
2023-11-07T06:07:48.236Z,180
2023-11-07T06:08:48.253Z,191
2023-11-07T06:09:48.228Z,208
2023-11-07T06:10:48.220Z,226
2023-11-07T06:11:48.281Z,248
2023-11-07T06:12:48.233Z,269
2023-11-07T06:13:48.228Z,298
2023-11-07T06:14:48.270Z,320
2023-11-07T06:15:48.250Z,342
2023-11-07T06:16:48.250Z,361
2023-11-07T06:17:48.297Z,376
2023-11-07T06:18:48.338Z,398
2023-11-07T06:19:48.240Z,423
2023-11-07T06:20:48.263Z,447
2023-11-07T06:21:48.233Z,473
2023-11-07T06:22:48.234Z,503
2023-11-07T06:23:48.287Z,543
2023-11-07T06:24:48.231Z,591
2023-11-07T06:25:48.236Z,643
2023-11-07T06:26:48.280Z,691
2023-11-07T06:27:48.233Z,733
2023-11-07T06:28:48.227Z,774
2023-11-07T06:29:48.349Z,816
2023-11-07T06:30:48.260Z,838
2023-11-07T06:31:48.244Z,866
2023-11-07T06:32:48.298Z,903
2023-11-07T06:33:48.327Z,932
2023-11-07T06:34:48.294Z,954
2023-11-07T06:35:48.281Z,986
2023-11-07T06:36:48.250Z,1019
2023-11-07T06:37:48.244Z,1059
2023-11-07T06:38:48.343Z,1098
2023-11-07T06:39:48.234Z,1146
2023-11-07T06:40:48.222Z,1203
2023-11-07T06:41:48.256Z,1260
2023-11-07T06:42:48.339Z,1415
2023-11-07T06:43:48.228Z,2077
2023-11-07T06:44:48.275Z,3087
2023-11-07T06:45:48.252Z,3102
2023-11-07T06:46:48.260Z,3244
2023-11-07T06:47:48.572Z,3341
2023-11-07T06:48:48.419Z,3456
2023-11-07T06:49:48.236Z,3531
2023-11-07T06:50:48.261Z,3564
2023-11-07T06:51:48.233Z,3854
2023-11-07T06:52:48.230Z,3985
2023-11-07T06:53:48.290Z,4088
2023-11-07T06:54:48.233Z,4130
2023-11-07T06:55:48.222Z,4237
2023-11-07T06:56:48.356Z,4405
2023-11-07T06:57:48.236Z,4572
2023-11-07T06:58:48.217Z,4807
2023-11-07T06:59:48.238Z,4891
2023-11-07T07:00:48.244Z,5085
2023-11-07T07:01:48.245Z,5131
2023-11-07T07:02:48.318Z,5400
2023-11-07T07:03:48.283Z,5549
2023-11-07T07:04:48.231Z,5173
2023-11-07T07:05:48.319Z,5699
2023-11-07T07:06:48.260Z,4322
2023-11-07T07:07:48.239Z,5688
2023-11-07T07:08:48.272Z,6206
2023-11-07T07:09:48.232Z,6285
2023-11-07T07:10:48.239Z,9085
2023-11-07T07:11:48.257Z,7024
2023-11-07T07:12:48.240Z,7184
2023-11-07T07:13:48.259Z,7302
2023-11-07T07:14:48.262Z,7649
2023-11-07T07:15:48.251Z,7829
2023-11-07T07:16:48.243Z,7997
2023-11-07T07:17:48.510Z,8146
2023-11-07T07:18:48.349Z,8290
2023-11-07T07:19:48.224Z,8513
2023-11-07T07:20:48.373Z,8541
2023-11-07T07:21:48.267Z,8511
2023-11-07T07:22:48.273Z,8484
2023-11-07T07:23:48.663Z,8334
2023-11-07T07:24:48.236Z,8174
2023-11-07T07:25:48.234Z,8268
2023-11-07T07:26:48.293Z,7774
2023-11-07T07:27:48.272Z,8447
2023-11-07T07:28:48.240Z,8135
2023-11-07T07:29:48.272Z,8817
2023-11-07T07:30:48.246Z,7787
2023-11-07T07:31:48.242Z,7671
2023-11-07T07:32:48.352Z,8355
2023-11-07T07:33:48.338Z,8174
2023-11-07T07:34:50.136Z,8093
2023-11-07T07:35:48.263Z,8202
2023-11-07T07:36:48.257Z,8259
2023-11-07T07:37:48.243Z,8191
2023-11-07T07:38:48.250Z,8231
2023-11-07T07:39:48.242Z,8298
2023-11-07T07:40:48.238Z,8443
2023-11-07T07:41:48.257Z,8583
2023-11-07T07:42:48.230Z,8576
2023-11-07T07:43:48.237Z,8670
2023-11-07T07:44:48.246Z,8710
2023-11-07T07:45:48.257Z,8723
2023-11-07T07:46:48.255Z,8814
2023-11-07T07:47:48.315Z,8910
2023-11-07T07:48:48.277Z,9164
2023-11-07T07:49:48.233Z,9341
2023-11-07T07:50:48.360Z,9477
2023-11-07T07:51:48.244Z,9728
2023-11-07T07:52:48.234Z,9556
2023-11-07T07:53:48.269Z,7662
2023-11-07T07:55:48.343Z,9302
2023-11-07T07:56:48.328Z,9315
2023-11-07T07:57:48.242Z,9376
2023-11-07T07:58:48.229Z,9354
2023-11-07T07:59:48.288Z,9407
2023-11-07T08:00:48.256Z,9512
2023-11-07T08:01:48.239Z,9630
2023-11-07T08:02:48.353Z,9776
2023-11-07T08:03:48.285Z,9803
2023-11-07T08:04:48.234Z,9925
2023-11-07T08:05:48.414Z,10032
2023-11-07T08:06:48.248Z,10027
2023-11-07T08:07:48.236Z,9944
2023-11-07T08:08:48.278Z,10456
2023-11-07T08:09:48.230Z,10491
2023-11-07T08:10:48.237Z,10498
2023-11-07T08:11:48.252Z,10454
2023-11-07T08:12:48.240Z,10747
2023-11-07T08:13:48.232Z,10747
2023-11-07T08:14:48.314Z,10557
2023-11-07T08:15:48.235Z,10685
2023-11-07T08:16:48.238Z,11636
2023-11-07T08:17:48.388Z,11149
2023-11-07T08:18:48.350Z,10716
2023-11-07T08:19:48.241Z,11064
2023-11-07T08:20:48.288Z,10631
2023-11-07T08:21:48.235Z,10861
2023-11-07T08:22:48.235Z,10897
2023-11-07T08:23:48.257Z,10646
2023-11-07T08:24:48.234Z,11376
2023-11-07T08:25:48.292Z,11309
2023-11-07T08:26:48.256Z,11368
2023-11-07T08:27:48.234Z,11339
2023-11-07T08:28:48.261Z,11197
2023-11-07T08:29:48.264Z,11202
2023-11-07T08:30:48.248Z,11164
2023-11-07T08:31:48.253Z,11145
2023-11-07T08:32:48.311Z,11295
2023-11-07T08:33:48.340Z,11142
2023-11-07T08:34:48.235Z,11223
2023-11-07T08:35:48.290Z,11215
2023-11-07T08:36:56.639Z,11317
2023-11-07T08:37:48.233Z,11365
2023-11-07T08:38:48.262Z,11414
2023-11-07T08:39:48.239Z,11545
2023-11-07T08:40:48.231Z,11529
2023-11-07T08:41:48.257Z,11269
2023-11-07T08:42:48.237Z,14200
2023-11-07T08:43:48.239Z,11984
2023-11-07T08:44:48.280Z,11999
2023-11-07T08:45:48.253Z,11896
2023-11-07T08:46:48.248Z,12032
2023-11-07T08:47:48.345Z,12255
2023-11-07T08:48:48.380Z,12233
2023-11-07T08:49:48.232Z,12244
2023-11-07T08:50:48.252Z,12170
2023-11-07T08:51:48.243Z,12218
2023-11-07T08:52:48.245Z,12342
2023-11-07T08:53:48.258Z,12472
2023-11-07T08:54:48.223Z,12552
2023-11-07T08:55:48.238Z,12520
2023-11-07T08:56:48.276Z,12530
2023-11-07T08:57:48.230Z,12500
2023-11-07T08:58:48.224Z,12605
2023-11-07T08:59:48.283Z,12644
2023-11-07T09:00:48.249Z,12437
2023-11-07T09:01:48.333Z,13149
2023-11-07T09:02:48.336Z,13263
2023-11-07T09:03:48.272Z,13628
2023-11-07T09:04:48.277Z,12795
2023-11-07T09:05:48.263Z,12895
2023-11-07T09:06:48.254Z,13494
2023-11-07T09:07:48.319Z,13503
2023-11-07T09:08:48.255Z,13696
2023-11-07T09:09:48.237Z,13352
2023-11-07T09:10:48.226Z,13142
2023-11-07T09:11:50.171Z,13092
2023-11-07T09:12:48.247Z,13132
2023-11-07T09:13:48.235Z,13132
2023-11-07T09:14:48.269Z,13210
2023-11-07T09:15:48.247Z,13337
2023-11-07T09:16:48.252Z,13503
2023-11-07T09:17:48.286Z,13433
2023-11-07T09:18:48.350Z,13256
2023-11-07T09:19:48.241Z,13199
2023-11-07T09:20:48.354Z,13208
2023-11-07T09:21:48.249Z,13287
2023-11-07T09:22:48.354Z,13075
2023-11-07T09:23:48.286Z,13396
2023-11-07T09:24:48.248Z,13197
2023-11-07T09:25:48.246Z,13505
2023-11-07T09:26:48.265Z,11643
2023-11-07T09:27:48.315Z,14270
2023-11-07T09:28:48.238Z,14216
2023-11-07T09:29:48.272Z,14192
2023-11-07T09:30:48.246Z,14378
2023-11-07T09:31:48.241Z,14518
2023-11-07T09:32:48.374Z,14684
2023-11-07T09:33:48.308Z,14861
2023-11-07T09:34:48.244Z,14861
2023-11-07T09:35:48.248Z,14979
2023-11-07T09:36:48.247Z,14802
2023-11-07T09:37:48.236Z,14424
2023-11-07T09:38:52.663Z,14546
2023-11-07T09:39:48.259Z,14607
2023-11-07T09:40:48.309Z,14480
2023-11-07T09:41:48.288Z,14297
2023-11-07T09:42:48.230Z,14166
2023-11-07T09:43:48.249Z,13995
2023-11-07T09:44:48.285Z,13801
2023-11-07T09:45:48.250Z,13730
2023-11-07T09:46:48.252Z,13796
2023-11-07T09:47:48.339Z,13886
2023-11-07T09:48:48.296Z,13903
2023-11-07T09:49:48.243Z,13731
2023-11-07T09:50:49.076Z,13689
2023-11-07T09:51:48.288Z,13890
2023-11-07T09:52:48.240Z,13945
2023-11-07T09:53:48.254Z,13846
2023-11-07T09:54:48.238Z,13809
2023-11-07T09:55:48.234Z,13901
2023-11-07T09:56:48.398Z,13976
2023-11-07T09:57:48.250Z,14102
2023-11-07T09:58:48.237Z,14220
2023-11-07T09:59:48.259Z,14450
2023-11-07T10:00:48.263Z,14397
2023-11-07T10:01:48.240Z,14262
2023-11-07T10:02:48.353Z,7308
2023-11-07T10:03:48.424Z,8073
2023-11-07T10:04:48.300Z,7826
2023-11-07T10:05:48.316Z,7693
2023-11-07T10:06:48.273Z,8357
2023-11-07T10:07:48.233Z,8674
2023-11-07T10:08:48.257Z,8941
2023-11-07T10:09:48.364Z,12159
2023-11-07T10:10:48.259Z,9166
2023-11-07T10:11:48.288Z,14660
2023-11-07T10:12:50.587Z,7888
2023-11-07T10:13:48.240Z,15573
2023-11-07T10:14:48.271Z,13295
2023-11-07T10:15:48.250Z,12386
2023-11-07T10:16:48.245Z,10524
2023-11-07T10:17:48.391Z,15429
2023-11-07T10:18:48.420Z,6119
2023-11-07T10:19:48.251Z,9175
2023-11-07T10:20:48.249Z,6253
2023-11-07T10:21:48.249Z,5855
2023-11-07T10:22:48.228Z,5874
2023-11-07T10:23:48.272Z,6228
2023-11-07T10:24:48.242Z,5820
2023-11-07T10:25:48.238Z,5113
2023-11-07T10:26:48.278Z,4657
2023-11-07T10:27:48.241Z,5118
2023-11-07T10:28:48.236Z,5054
2023-11-07T10:29:56.534Z,4925
2023-11-07T10:30:48.244Z,4582
2023-11-07T10:31:48.243Z,4020
2023-11-07T10:32:48.316Z,4123
2023-11-07T10:33:48.301Z,4950
2023-11-07T10:34:48.237Z,4950
2023-11-07T10:35:48.295Z,8078
2023-11-07T10:36:48.251Z,8650
2023-11-07T10:37:48.241Z,14887
2023-11-07T10:38:48.277Z,7186
2023-11-07T10:39:48.230Z,7770
2023-11-07T10:40:48.241Z,6440
2023-11-07T10:41:48.273Z,6180
2023-11-07T10:42:48.232Z,7382
2023-11-07T10:43:48.230Z,16188
2023-11-07T10:44:48.251Z,15980
2023-11-07T10:45:48.252Z,15694
2023-11-07T10:46:48.262Z,15595
2023-11-07T10:47:48.274Z,14316
2023-11-07T10:48:48.309Z,5459
2023-11-07T10:49:48.237Z,4429
2023-11-07T10:50:48.283Z,4075
2023-11-07T10:51:49.273Z,4154
2023-11-07T10:52:48.243Z,5033
2023-11-07T10:53:48.276Z,8467
2023-11-07T10:54:48.249Z,6567
2023-11-07T10:55:48.241Z,6329
2023-11-07T10:56:48.358Z,5776
2023-11-07T10:57:48.225Z,5315
2023-11-07T10:58:48.243Z,4757
2023-11-07T10:59:48.257Z,3977
2023-11-07T11:00:48.246Z,3942
2023-11-07T11:01:53.562Z,4325
2023-11-07T11:02:52.546Z,4128
2023-11-07T11:03:52.565Z,3699
2023-11-07T11:04:52.474Z,3380
2023-11-07T11:05:52.545Z,2720
2023-11-07T11:06:52.584Z,2550
2023-11-07T11:07:52.452Z,2858
2023-11-07T11:08:52.514Z,3330
2023-11-07T11:09:52.464Z,3559
2023-11-07T11:10:52.464Z,3883
2023-11-07T11:11:52.533Z,4220
2023-11-07T11:12:52.456Z,4661
2023-11-07T11:13:52.476Z,4187
2023-11-07T11:14:52.494Z,3761
2023-11-07T11:15:52.485Z,3463
2023-11-07T11:16:52.482Z,3256
2023-11-07T11:17:52.613Z,3150
2023-11-07T11:18:52.648Z,2987
2023-11-07T11:19:52.609Z,2659
2023-11-07T11:20:52.515Z,2327
2023-11-07T11:21:52.473Z,1780
2023-11-07T11:22:52.460Z,1598
2023-11-07T11:23:52.533Z,1588
2023-11-07T11:24:52.477Z,1813
2023-11-07T11:25:52.467Z,2197
2023-11-07T11:26:52.512Z,2635
2023-11-07T11:27:52.477Z,3256
2023-11-07T11:28:52.472Z,3972
2023-11-07T11:29:52.506Z,4412
2023-11-07T11:30:52.477Z,4681
2023-11-07T11:31:52.469Z,5345
2023-11-07T11:32:52.569Z,8727
2023-11-07T11:33:52.670Z,7186
2023-11-07T11:34:52.490Z,7186
2023-11-07T11:35:52.483Z,6895
2023-11-07T11:36:52.472Z,8545
2023-11-07T11:37:52.454Z,7536
2023-11-07T11:38:52.509Z,8357
2023-11-07T11:39:52.465Z,12926
2023-11-07T11:40:52.478Z,8838
2023-11-07T11:41:52.508Z,7997
2023-11-07T11:42:52.457Z,6930
2023-11-07T11:43:52.469Z,6030
2023-11-07T11:44:52.473Z,5166
2023-11-07T11:45:52.529Z,4438
2023-11-07T11:46:52.480Z,3795
2023-11-07T11:47:52.869Z,3266
2023-11-07T11:48:53.475Z,3111
2023-11-07T11:49:52.461Z,3605
2023-11-07T11:50:52.474Z,3151
2023-11-07T11:51:52.463Z,3221
2023-11-07T11:52:52.460Z,3234
2023-11-07T11:53:52.522Z,3417
2023-11-07T11:54:52.457Z,4342
2023-11-07T11:55:52.453Z,8609
2023-11-07T11:56:52.780Z,6300
2023-11-07T11:57:52.480Z,10705
2023-11-07T11:58:52.463Z,7665
2023-11-07T11:59:52.544Z,9977
2023-11-07T12:00:52.473Z,9977
2023-11-07T12:01:52.475Z,9977
2023-11-07T12:02:52.627Z,9977
2023-11-07T12:03:52.577Z,9977
2023-11-07T12:04:52.449Z,11978
2023-11-07T12:05:52.552Z,14185
2023-11-07T12:06:52.691Z,6324
2023-11-07T12:07:52.498Z,13516
2023-11-07T12:08:52.484Z,4493
2023-11-07T12:09:52.461Z,3456
2023-11-07T12:10:52.456Z,3284
2023-11-07T12:11:52.464Z,3538
2023-11-07T12:12:52.467Z,3581
2023-11-07T12:13:52.470Z,4191
2023-11-07T12:14:52.604Z,4377
2023-11-07T12:15:52.572Z,4473
2023-11-07T12:16:52.472Z,4169
2023-11-07T12:17:52.529Z,3914
2023-11-07T12:18:52.857Z,3513
2023-11-07T12:19:52.465Z,3994
2023-11-07T12:20:52.473Z,4278
2023-11-07T12:21:52.468Z,3832
2023-11-07T12:22:52.471Z,3063
2023-11-07T12:23:52.471Z,3008
2023-11-07T12:24:52.458Z,3039
2023-11-07T12:25:52.482Z,6006
2023-11-07T12:26:52.504Z,3644
2023-11-07T12:27:52.502Z,3955
2023-11-07T12:28:54.382Z,3907
2023-11-07T12:29:52.478Z,3603
2023-11-07T12:30:52.472Z,4034
2023-11-07T12:31:52.467Z,4005
2023-11-07T12:32:52.508Z,7175
2023-11-07T12:33:52.605Z,8742
2023-11-07T12:34:52.503Z,7479
2023-11-07T12:35:52.469Z,6683
2023-11-07T12:36:52.468Z,6169
2023-11-07T12:37:52.461Z,6169
2023-11-07T12:38:52.476Z,5531
2023-11-07T12:39:52.445Z,5531
2023-11-07T12:40:52.456Z,6294
2023-11-07T12:41:52.530Z,7405
2023-11-07T12:42:52.444Z,10657
2023-11-07T12:43:52.479Z,10917
2023-11-07T12:44:52.538Z,11374
2023-11-07T12:45:52.468Z,10165
2023-11-07T12:46:52.471Z,8412
2023-11-07T12:47:52.569Z,5295
2023-11-07T12:48:52.614Z,3452
2023-11-07T12:49:52.467Z,2932
2023-11-07T12:50:52.497Z,2932
2023-11-07T12:51:52.459Z,2755
2023-11-07T12:52:52.457Z,2919
2023-11-07T12:53:52.752Z,3489
2023-11-07T12:54:52.474Z,3773
2023-11-07T12:55:52.465Z,3747
2023-11-07T12:56:52.503Z,3691
2023-11-07T12:57:52.457Z,3550
2023-11-07T12:58:52.473Z,3697
2023-11-07T12:59:52.480Z,3325
2023-11-07T13:00:52.479Z,3015
2023-11-07T13:01:52.460Z,2827
2023-11-07T13:02:52.509Z,2434
2023-11-07T13:03:52.510Z,2385
2023-11-07T13:04:52.458Z,2385
2023-11-07T13:05:52.605Z,2700
2023-11-07T13:06:52.508Z,2678
2023-11-07T13:07:52.455Z,2888
2023-11-07T13:08:52.467Z,2740
2023-11-07T13:09:52.469Z,2482
2023-11-07T13:10:52.455Z,2484
2023-11-07T13:11:52.511Z,2703
2023-11-07T13:12:52.467Z,2917
2023-11-07T13:13:52.462Z,3186
2023-11-07T13:14:52.467Z,3573
2023-11-07T13:15:52.470Z,3964
2023-11-07T13:16:52.479Z,9553
2023-11-07T13:17:52.499Z,4480
2023-11-07T13:18:52.505Z,9971
2023-11-07T13:19:52.460Z,5603
2023-11-07T13:20:52.486Z,5651
2023-11-07T13:21:52.485Z,10106
2023-11-07T13:22:52.460Z,3408
2023-11-07T13:23:52.462Z,9287
2023-11-07T13:24:52.445Z,9287
2023-11-07T13:25:52.453Z,9009
2023-11-07T13:26:52.519Z,3666
2023-11-07T13:27:52.452Z,8030
2023-11-07T13:28:52.451Z,6458
2023-11-07T13:29:52.505Z,6537
2023-11-07T13:30:52.462Z,8574
2023-11-07T13:31:52.461Z,8574
2023-11-07T13:32:52.629Z,8587
2023-11-07T13:33:52.752Z,8404
2023-11-07T13:34:52.509Z,8358
2023-11-07T13:35:52.488Z,8121
2023-11-07T13:36:52.476Z,7966
2023-11-07T13:37:52.461Z,7455
2023-11-07T13:38:52.476Z,2257
2023-11-07T13:39:52.453Z,2066
2023-11-07T13:40:52.445Z,1961
2023-11-07T13:41:52.480Z,1946
2023-11-07T13:42:52.480Z,1946
2023-11-07T13:43:52.451Z,1946
2023-11-07T13:44:52.483Z,1946
2023-11-07T13:45:52.463Z,1640
2023-11-07T13:46:52.465Z,1533
2023-11-07T13:47:52.574Z,1461
2023-11-07T13:48:52.564Z,1375
2023-11-07T13:49:52.447Z,1314
2023-11-07T13:50:52.525Z,1292
2023-11-07T13:51:52.457Z,1249